createdAt,value
2018-04-17T00:00:57.151Z,10.20
2018-04-17T00:03:23.363Z,10.30
2018-04-17T00:05:49.600Z,10.30
2018-04-17T00:08:15.821Z,10.40
2018-04-17T00:10:42.077Z,10.40
2018-04-17T00:13:08.347Z,10.40
2018-04-17T00:15:34.638Z,10.50
2018-04-17T00:18:00.863Z,10.50
2018-04-17T00:20:27.085Z,10.50
2018-04-17T00:22:54.133Z,10.30
2018-04-17T00:25:20.353Z,10.30
2018-04-17T00:27:46.583Z,10.30
2018-04-17T00:30:12.872Z,10.30
2018-04-17T00:32:39.093Z,10.00
2018-04-17T00:35:06.068Z,10.00
2018-04-17T00:37:32.317Z,10.00
2018-04-17T00:39:58.514Z,10.00
2018-04-17T00:42:24.737Z,10.00
2018-04-17T00:44:51.013Z,10.10
2018-04-17T00:47:17.313Z,10.00
2018-04-17T00:49:43.590Z,10.00
2018-04-17T00:52:10.579Z,9.90
2018-04-17T00:54:36.819Z,9.90
2018-04-17T00:57:03.075Z,9.90
2018-04-17T00:59:29.285Z,9.90
2018-04-17T01:01:55.495Z,9.90
2018-04-17T01:04:21.720Z,9.80
2018-04-17T01:06:48.008Z,9.90
2018-04-17T01:09:14.962Z,9.80
2018-04-17T01:11:41.900Z,9.70
2018-04-17T01:14:08.844Z,9.60
2018-04-17T01:16:35.788Z,9.60
2018-04-17T01:19:02.026Z,9.60
2018-04-17T01:21:29.030Z,9.60
2018-04-17T01:23:55.262Z,9.60
2018-04-17T01:26:21.465Z,9.60
2018-04-17T01:28:47.682Z,9.60
2018-04-17T01:31:20.896Z,9.70
2018-04-17T01:33:47.116Z,9.60
2018-04-17T01:36:13.343Z,9.40
2018-04-17T01:38:39.563Z,9.50
2018-04-17T01:41:05.812Z,9.50
2018-04-17T01:43:32.031Z,9.50
2018-04-17T01:45:58.277Z,9.60
2018-04-17T01:48:24.540Z,9.60
2018-04-17T01:50:50.919Z,9.60
2018-04-17T01:53:17.176Z,9.60
2018-04-17T01:55:43.425Z,9.50
2018-04-17T01:58:10.409Z,9.40
2018-04-17T02:00:36.643Z,9.40
2018-04-17T02:03:02.887Z,9.40
2018-04-17T02:05:29.126Z,9.50
2018-04-17T02:07:55.410Z,9.40
2018-04-17T02:10:21.648Z,9.40
2018-04-17T02:12:47.831Z,9.30
2018-04-17T02:15:14.772Z,9.30
2018-04-17T02:17:41.013Z,9.30
2018-04-17T02:20:08.009Z,9.20
2018-04-17T02:22:34.288Z,9.20
2018-04-17T02:25:01.285Z,9.20
2018-04-17T02:27:27.532Z,9.20
2018-04-17T02:29:53.856Z,9.20
2018-04-17T02:32:20.085Z,9.20
2018-04-17T02:34:46.308Z,9.20
2018-04-17T02:37:12.546Z,9.20
2018-04-17T02:39:38.761Z,9.20
2018-04-17T02:42:05.017Z,9.20
2018-04-17T02:44:32.020Z,8.90
2018-04-17T02:46:58.242Z,8.90
2018-04-17T02:49:24.441Z,8.90
2018-04-17T02:51:51.437Z,8.90
2018-04-17T02:54:17.666Z,8.90
2018-04-17T02:56:43.893Z,8.90
2018-04-17T02:59:10.102Z,9.00
2018-04-17T03:01:36.441Z,8.80
2018-04-17T03:04:02.701Z,8.80
2018-04-17T03:06:29.030Z,8.80
2018-04-17T03:08:55.252Z,8.80
2018-04-17T03:11:21.449Z,8.70
2018-04-17T03:13:47.657Z,8.70
2018-04-17T03:16:13.890Z,8.70
2018-04-17T03:18:40.961Z,8.70
2018-04-17T03:21:07.204Z,8.70
2018-04-17T03:23:33.465Z,8.80
2018-04-17T03:26:00.442Z,8.70
2018-04-17T03:28:26.648Z,8.70
2018-04-17T03:30:52.865Z,8.60
2018-04-17T03:33:19.828Z,8.60
2018-04-17T03:35:46.062Z,8.60
2018-04-17T03:38:12.310Z,8.60
2018-04-17T03:40:38.570Z,8.60
2018-04-17T03:43:04.825Z,8.60
2018-04-17T03:45:31.783Z,8.60
2018-04-17T03:47:57.989Z,8.60
2018-04-17T03:50:25.015Z,8.60
2018-04-17T03:52:51.225Z,8.60
2018-04-17T03:55:17.461Z,8.70
2018-04-17T03:57:43.686Z,8.60
2018-04-17T04:00:10.008Z,8.60
2018-04-17T04:02:36.199Z,8.50
2018-04-17T04:05:02.492Z,8.60
2018-04-17T04:07:28.701Z,8.50
2018-04-17T04:09:54.917Z,8.50
2018-04-17T04:12:21.236Z,8.50
2018-04-17T04:14:47.506Z,8.50
2018-04-17T04:17:25.987Z,8.50
2018-04-17T04:20:04.513Z,8.50
2018-04-17T04:22:51.748Z,8.50
2018-04-17T04:25:23.761Z,8.50
2018-04-17T04:27:50.078Z,8.50
2018-04-17T04:30:16.365Z,8.50
2018-04-17T04:32:42.581Z,8.50
2018-04-17T04:35:08.840Z,8.50
2018-04-17T04:37:35.116Z,8.60
2018-04-17T04:40:01.326Z,8.60
2018-04-17T04:42:27.601Z,8.60
2018-04-17T04:44:53.821Z,8.60
2018-04-17T04:47:20.106Z,8.60
2018-04-17T04:49:46.349Z,8.60
2018-04-17T04:52:12.640Z,8.60
2018-04-17T04:54:38.776Z,8.70
2018-04-17T04:57:05.014Z,8.60
2018-04-17T04:59:32.165Z,8.70
2018-04-17T05:01:58.423Z,8.70
2018-04-17T05:04:24.645Z,8.80
2018-04-17T05:06:50.939Z,8.90
2018-04-17T05:09:17.164Z,9.00
2018-04-17T05:11:43.405Z,9.10
2018-04-17T05:14:09.673Z,9.20
2018-04-17T05:16:35.972Z,9.30
2018-04-17T05:19:02.217Z,9.40
2018-04-17T05:21:28.460Z,9.50
2018-04-17T05:23:54.724Z,9.50
2018-04-17T05:26:21.691Z,9.80
2018-04-17T05:28:47.908Z,9.80
2018-04-17T05:31:14.866Z,9.90
2018-04-17T05:33:41.064Z,9.90
2018-04-17T05:36:07.267Z,10.00
2018-04-17T05:38:33.505Z,10.10
2018-04-17T05:40:59.820Z,10.20
2018-04-17T05:43:26.038Z,10.20
2018-04-17T05:45:52.313Z,10.30
2018-04-17T05:48:19.313Z,10.50
2018-04-17T05:50:45.542Z,10.50
2018-04-17T05:53:11.747Z,10.60
2018-04-17T05:55:38.047Z,10.70
2018-04-17T05:58:05.054Z,10.90
2018-04-17T06:00:31.300Z,10.90
2018-04-17T06:02:57.533Z,11.00
2018-04-17T06:05:23.799Z,11.10
2018-04-17T06:07:50.012Z,11.20
2018-04-17T06:10:16.244Z,11.30
2018-04-17T06:12:43.134Z,11.30
2018-04-17T06:15:09.367Z,11.40
2018-04-17T06:17:35.644Z,11.50
2018-04-17T06:20:01.872Z,11.60
2018-04-17T06:22:28.093Z,11.70
2018-04-17T06:24:55.170Z,11.80
2018-04-17T06:27:21.405Z,11.80
2018-04-17T06:29:47.652Z,12.00
2018-04-17T06:32:13.891Z,12.10
2018-04-17T06:34:40.227Z,12.10
2018-04-17T06:37:06.462Z,12.30
2018-04-17T06:39:32.675Z,12.40
2018-04-17T06:41:58.931Z,12.50
2018-04-17T06:44:25.137Z,12.60
2018-04-17T06:46:51.387Z,12.70
2018-04-17T06:49:17.633Z,12.80
2018-04-17T06:51:43.877Z,12.90
2018-04-17T06:54:10.096Z,13.10
2018-04-17T06:56:36.342Z,13.10
2018-04-17T06:59:02.565Z,13.20
2018-04-17T07:01:28.779Z,13.40
2018-04-17T07:03:55.042Z,13.50
2018-04-17T07:06:21.270Z,13.60
2018-04-17T07:08:47.741Z,13.80
2018-04-17T07:11:15.283Z,14.20
2018-04-17T07:13:41.471Z,14.20
2018-04-17T07:16:07.830Z,14.50
2018-04-17T07:18:34.041Z,16.20
2018-04-17T07:21:00.278Z,19.30
2018-04-17T07:23:26.488Z,22.10
2018-04-17T07:25:53.047Z,24.30
2018-04-17T07:28:19.394Z,26.60
2018-04-17T07:30:45.688Z,28.30
2018-04-17T07:33:12.042Z,29.20
2018-04-17T07:35:38.272Z,29.40
2018-04-17T07:38:04.504Z,29.80
2018-04-17T07:40:30.758Z,29.90
2018-04-17T07:42:56.983Z,30.80
2018-04-17T07:45:23.306Z,32.30
2018-04-17T07:48:02.614Z,33.00
2018-04-17T07:50:28.872Z,33.00
2018-04-17T07:52:55.831Z,34.70
2018-04-17T07:55:22.122Z,34.60
2018-04-17T07:57:48.368Z,35.40
2018-04-17T08:00:15.326Z,35.60
2018-04-17T08:02:42.276Z,36.00
2018-04-17T08:05:08.503Z,35.90
2018-04-17T08:07:34.834Z,36.10
2018-04-17T08:10:01.060Z,35.70
2018-04-17T08:12:28.014Z,36.10
2018-04-17T08:14:55.080Z,36.20
2018-04-17T08:17:21.332Z,36.20
2018-04-17T08:19:47.556Z,36.60
2018-04-17T08:22:13.777Z,35.90
2018-04-17T08:24:40.049Z,35.70
2018-04-17T08:27:07.057Z,36.00
2018-04-17T08:29:33.305Z,35.90
2018-04-17T08:31:59.516Z,35.90
2018-04-17T08:34:26.533Z,35.00
2018-04-17T08:36:52.756Z,34.90
2018-04-17T08:39:18.964Z,34.40
2018-04-17T08:41:45.184Z,34.80
2018-04-17T08:44:12.207Z,35.70
2018-04-17T08:46:38.441Z,35.60
2018-04-17T08:49:05.467Z,37.50
2018-04-17T08:51:31.716Z,37.50
2018-04-17T08:53:58.689Z,37.30
2018-04-17T08:56:24.949Z,37.20
2018-04-17T08:58:51.208Z,37.10
2018-04-17T09:01:18.201Z,37.60
2018-04-17T09:03:44.514Z,37.60
2018-04-17T09:06:11.503Z,37.40
2018-04-17T09:08:37.773Z,37.40
2018-04-17T09:11:04.800Z,38.40
2018-04-17T09:13:31.055Z,38.30
2018-04-17T09:15:58.019Z,37.20
2018-04-17T09:18:24.491Z,37.10
2018-04-17T09:20:50.742Z,37.70
2018-04-17T09:23:17.015Z,38.10
2018-04-17T09:25:43.282Z,38.30
2018-04-17T09:28:09.556Z,37.40
2018-04-17T09:30:35.868Z,37.00
2018-04-17T09:33:02.146Z,37.30
2018-04-17T09:35:28.406Z,37.00
2018-04-17T09:37:54.733Z,36.80
2018-04-17T09:40:20.987Z,36.50
2018-04-17T09:42:47.997Z,37.20
2018-04-17T09:45:14.217Z,37.20
2018-04-17T09:47:40.486Z,37.10
2018-04-17T09:50:07.479Z,36.30
2018-04-17T09:52:33.729Z,36.20
2018-04-17T09:54:59.982Z,35.70
2018-04-17T09:57:26.211Z,34.90
2018-04-17T09:59:53.223Z,34.10
2018-04-17T10:02:19.463Z,34.10
2018-04-17T10:04:45.787Z,33.60
2018-04-17T10:07:12.069Z,33.10
2018-04-17T10:09:38.299Z,32.40
2018-04-17T10:12:04.518Z,32.10
2018-04-17T10:14:30.809Z,31.80
2018-04-17T10:16:57.050Z,31.70
2018-04-17T10:19:23.311Z,30.90
2018-04-17T10:21:49.578Z,30.10
2018-04-17T10:24:15.902Z,29.50
2018-04-17T10:26:42.166Z,28.80
2018-04-17T10:29:09.196Z,28.50
2018-04-17T10:31:36.339Z,28.40
2018-04-17T10:34:02.676Z,28.40
2018-04-17T10:36:28.901Z,28.40
2018-04-17T10:38:55.157Z,27.80
2018-04-17T10:41:22.182Z,26.70
2018-04-17T10:43:49.268Z,26.50
2018-04-17T10:46:16.475Z,26.30
2018-04-17T10:48:42.702Z,26.20
2018-04-17T10:51:08.933Z,26.00
2018-04-17T10:53:35.155Z,26.20
2018-04-17T10:56:01.440Z,25.80
2018-04-17T10:58:27.728Z,25.40
2018-04-17T11:00:54.461Z,25.20
2018-04-17T11:03:20.838Z,25.30
2018-04-17T11:05:47.179Z,25.30
2018-04-17T11:08:13.414Z,25.40
2018-04-17T11:10:40.089Z,25.00
2018-04-17T11:13:06.519Z,24.90
2018-04-17T11:15:32.778Z,25.00
2018-04-17T11:17:59.807Z,25.20
2018-04-17T11:20:26.083Z,25.20
2018-04-17T11:22:52.347Z,25.10
2018-04-17T11:25:18.594Z,25.00
2018-04-17T11:27:44.834Z,25.20
2018-04-17T11:30:11.150Z,25.20
2018-04-17T11:32:37.398Z,25.40
2018-04-17T11:35:04.402Z,25.20
2018-04-17T11:37:30.835Z,25.20
2018-04-17T11:39:57.117Z,25.10
2018-04-17T11:42:23.414Z,25.00
2018-04-17T11:44:49.657Z,25.20
2018-04-17T11:47:16.631Z,25.10
2018-04-17T11:49:42.866Z,25.10
2018-04-17T11:52:09.110Z,25.10
2018-04-17T11:54:35.370Z,25.30
2018-04-17T11:57:01.718Z,25.30
2018-04-17T11:59:29.682Z,24.90
2018-04-17T12:01:55.981Z,24.90
2018-04-17T12:04:22.223Z,24.40
2018-04-17T12:06:48.545Z,24.50
2018-04-17T12:09:14.813Z,24.80
2018-04-17T12:11:41.077Z,24.90
2018-04-17T12:14:07.384Z,24.90
2018-04-17T12:16:33.641Z,25.10
2018-04-17T12:18:59.886Z,25.00
2018-04-17T12:21:26.118Z,24.80
2018-04-17T12:23:52.370Z,24.80
2018-04-17T12:26:19.357Z,24.90
2018-04-17T12:28:45.592Z,24.90
2018-04-17T12:31:11.861Z,25.00
2018-04-17T12:33:38.875Z,24.90
2018-04-17T12:36:05.185Z,24.90
2018-04-17T12:38:31.477Z,25.00
2018-04-17T12:40:58.515Z,25.20
2018-04-17T12:43:25.513Z,25.30
2018-04-17T12:45:51.803Z,25.30
2018-04-17T12:48:18.895Z,25.50
2018-04-17T12:50:45.150Z,25.40
2018-04-17T12:53:11.435Z,25.20
2018-04-17T12:55:37.720Z,25.10
2018-04-17T12:58:04.028Z,25.10
2018-04-17T13:00:30.283Z,24.90
2018-04-17T13:02:57.276Z,24.20
2018-04-17T13:05:23.514Z,24.20
2018-04-17T13:07:49.823Z,23.90
2018-04-17T13:10:16.120Z,23.80
2018-04-17T13:12:42.402Z,23.80
2018-04-17T13:15:08.663Z,24.00
2018-04-17T13:17:35.681Z,24.20
2018-04-17T13:20:01.968Z,24.10
2018-04-17T13:22:28.974Z,24.10
2018-04-17T13:24:55.270Z,24.10
2018-04-17T13:27:21.579Z,24.10
2018-04-17T13:29:47.849Z,24.10
2018-04-17T13:32:14.103Z,24.20
2018-04-17T13:34:40.363Z,24.30
2018-04-17T13:37:06.609Z,24.40
2018-04-17T13:39:32.843Z,24.50
2018-04-17T13:41:59.165Z,24.50
2018-04-17T13:44:25.418Z,24.60
2018-04-17T13:46:51.735Z,24.40
2018-04-17T13:49:18.002Z,24.40
2018-04-17T13:51:45.032Z,24.10
2018-04-17T13:54:11.328Z,24.00
2018-04-17T13:56:37.584Z,24.00
2018-04-17T13:59:03.822Z,24.00
2018-04-17T14:01:30.071Z,24.00
2018-04-17T14:03:57.127Z,24.10
2018-04-17T14:06:23.432Z,24.00
2018-04-17T14:08:49.737Z,24.10
2018-04-17T14:11:16.001Z,24.20
2018-04-17T14:13:43.037Z,24.20
2018-04-17T14:16:09.283Z,24.20
2018-04-17T14:18:35.594Z,24.20
2018-04-17T14:21:01.845Z,23.90
2018-04-17T14:23:28.829Z,23.60
2018-04-17T14:25:55.190Z,23.60
2018-04-17T14:28:21.473Z,23.60
2018-04-17T14:30:47.899Z,23.50
2018-04-17T14:33:14.201Z,23.50
2018-04-17T14:35:40.447Z,23.50
2018-04-17T14:38:07.458Z,23.80
2018-04-17T14:40:33.705Z,23.80
2018-04-17T14:42:59.990Z,23.70
2018-04-17T14:45:26.253Z,23.70
2018-04-17T14:47:52.538Z,23.70
2018-04-17T14:50:18.825Z,23.70
2018-04-17T14:52:45.059Z,23.60
2018-04-17T14:55:12.069Z,23.70
2018-04-17T14:57:38.322Z,23.70
2018-04-17T15:00:04.600Z,23.60
2018-04-17T15:02:31.682Z,23.40
2018-04-17T15:04:57.936Z,23.40
2018-04-17T15:07:24.915Z,23.40
2018-04-17T15:09:51.186Z,23.40
2018-04-17T15:12:18.846Z,23.70
2018-04-17T15:14:45.086Z,23.70
2018-04-17T15:17:11.319Z,23.60
2018-04-17T15:19:38.359Z,23.60
2018-04-17T15:22:04.618Z,23.60
2018-04-17T15:24:30.869Z,23.70
2018-04-17T15:26:57.115Z,23.70
2018-04-17T15:29:23.337Z,23.70
2018-04-17T15:31:49.589Z,23.70
2018-04-17T15:34:15.797Z,23.80
2018-04-17T15:36:42.049Z,23.60
2018-04-17T15:39:08.243Z,23.70
2018-04-17T15:41:34.427Z,23.70
2018-04-17T15:44:01.400Z,23.80
2018-04-17T15:46:27.618Z,23.80
2018-04-17T15:48:53.844Z,23.90
2018-04-17T15:51:20.789Z,24.00
2018-04-17T15:53:47.041Z,24.00
2018-04-17T15:56:13.265Z,24.00
2018-04-17T15:58:39.556Z,23.90
2018-04-17T16:01:05.794Z,24.00
2018-04-17T16:03:32.044Z,24.00
2018-04-17T16:05:58.300Z,24.10
2018-04-17T16:08:24.488Z,24.10
2018-04-17T16:10:50.801Z,24.10
2018-04-17T16:13:17.813Z,24.10
2018-04-17T16:15:44.146Z,24.00
2018-04-17T16:18:10.420Z,24.10
2018-04-17T16:20:37.398Z,23.90
2018-04-17T16:23:03.651Z,23.90
2018-04-17T16:25:30.579Z,23.80
2018-04-17T16:27:56.808Z,23.80
2018-04-17T16:30:23.085Z,23.80
2018-04-17T16:32:50.085Z,23.80
2018-04-17T16:35:16.334Z,23.80
2018-04-17T16:37:42.580Z,23.80
2018-04-17T16:40:09.528Z,23.70
2018-04-17T16:42:35.864Z,23.70
2018-04-17T16:45:02.122Z,23.70
2018-04-17T16:47:28.352Z,23.70
2018-04-17T16:49:54.640Z,23.60
2018-04-17T16:52:21.763Z,23.60
2018-04-17T16:54:48.005Z,23.60
2018-04-17T16:57:14.260Z,23.60
2018-04-17T16:59:40.503Z,23.50
2018-04-17T17:02:06.701Z,23.50
2018-04-17T17:04:33.643Z,23.60
2018-04-17T17:07:00.615Z,23.50
2018-04-17T17:09:26.821Z,23.50
2018-04-17T17:11:53.792Z,23.50
2018-04-17T17:14:20.073Z,23.50
2018-04-17T17:16:46.362Z,23.40
2018-04-17T17:19:12.557Z,23.40
2018-04-17T17:21:38.842Z,23.30
2018-04-17T17:24:05.051Z,23.20
2018-04-17T17:26:31.305Z,23.20
2018-04-17T17:28:57.582Z,23.20
2018-04-17T17:31:23.854Z,23.10
2018-04-17T17:33:50.151Z,23.10
2018-04-17T17:36:16.430Z,23.10
2018-04-17T17:38:44.222Z,23.00
2018-04-17T17:41:18.320Z,23.00
2018-04-17T17:43:45.295Z,22.90
2018-04-17T17:46:11.535Z,22.80
2018-04-17T17:48:37.757Z,22.70
2018-04-17T17:51:04.024Z,22.70
2018-04-17T17:53:30.975Z,22.50
2018-04-17T17:55:57.437Z,22.50
2018-04-17T17:58:24.392Z,22.30
2018-04-17T18:00:50.692Z,22.30
2018-04-17T18:03:17.672Z,22.00
2018-04-17T18:05:43.899Z,22.00
2018-04-17T18:08:10.104Z,21.90
2018-04-17T18:10:37.070Z,21.70
2018-04-17T18:13:03.362Z,21.70
2018-04-17T18:15:30.431Z,21.50
2018-04-17T18:17:56.693Z,21.50
2018-04-17T18:20:22.969Z,21.50
2018-04-17T18:22:49.982Z,21.20
2018-04-17T18:25:16.184Z,21.20
2018-04-17T18:27:42.437Z,21.10
2018-04-17T18:30:08.693Z,21.00
2018-04-17T18:32:35.708Z,20.80
2018-04-17T18:35:01.945Z,20.80
2018-04-17T18:37:28.205Z,20.70
2018-04-17T18:39:55.173Z,20.50
2018-04-17T18:42:21.379Z,20.50
2018-04-17T18:44:55.248Z,20.30
2018-04-17T18:47:21.463Z,20.30
2018-04-17T18:49:47.675Z,20.20
2018-04-17T18:52:13.921Z,20.10
2018-04-17T18:54:40.294Z,20.00
2018-04-17T18:57:07.309Z,19.90
2018-04-17T18:59:33.640Z,19.90
2018-04-17T19:01:59.867Z,19.80
2018-04-17T19:04:26.081Z,19.70
2018-04-17T19:06:52.320Z,19.70
2018-04-17T19:09:18.556Z,19.60
2018-04-17T19:11:44.849Z,19.50
2018-04-17T19:14:11.881Z,19.30
2018-04-17T19:16:38.096Z,19.30
2018-04-17T19:19:05.062Z,19.20
2018-04-17T19:21:31.312Z,19.20
2018-04-17T19:23:57.656Z,19.10
2018-04-17T19:26:23.856Z,19.00
2018-04-17T19:28:50.078Z,19.00
2018-04-17T19:31:17.178Z,18.80
2018-04-17T19:33:43.487Z,18.80
2018-04-17T19:36:09.695Z,18.70
2018-04-17T19:38:36.729Z,18.60
2018-04-17T19:41:03.021Z,18.60
2018-04-17T19:43:29.252Z,18.60
2018-04-17T19:45:56.277Z,18.40
2018-04-17T19:48:29.565Z,18.40
2018-04-17T19:50:55.824Z,18.40
2018-04-17T19:53:23.252Z,18.30
2018-04-17T19:55:50.291Z,18.20
2018-04-17T19:58:16.542Z,18.20
2018-04-17T20:00:43.569Z,18.10
2018-04-17T20:03:09.807Z,18.10
2018-04-17T20:05:36.184Z,18.00
2018-04-17T20:08:02.419Z,18.00
2018-04-17T20:10:28.631Z,17.90
2018-04-17T20:12:54.860Z,17.90
2018-04-17T20:15:21.873Z,17.70
2018-04-17T20:17:48.882Z,17.70
2018-04-17T20:20:15.141Z,17.70
2018-04-17T20:22:41.377Z,17.70
2018-04-17T20:25:07.600Z,17.60
2018-04-17T20:27:33.828Z,17.60
2018-04-17T20:30:00.096Z,17.60
2018-04-17T20:32:26.348Z,17.50
2018-04-17T20:34:52.585Z,17.50
2018-04-17T20:37:18.838Z,17.50
2018-04-17T20:39:45.117Z,17.40
2018-04-17T20:42:11.390Z,17.40
2018-04-17T20:44:37.591Z,17.40
2018-04-17T20:47:03.839Z,17.30
2018-04-17T20:49:30.094Z,17.20
2018-04-17T20:51:56.472Z,17.20
2018-04-17T20:54:22.718Z,17.10
2018-04-17T20:56:48.984Z,17.10
2018-04-17T20:59:15.213Z,17.10
2018-04-17T21:01:41.437Z,17.00
2018-04-17T21:04:07.643Z,16.90
2018-04-17T21:06:33.889Z,16.90
2018-04-17T21:09:00.180Z,16.80
2018-04-17T21:11:26.475Z,16.80
2018-04-17T21:13:53.026Z,16.80
2018-04-17T21:16:19.872Z,16.70
2018-04-17T21:18:46.156Z,16.60
2018-04-17T21:21:13.164Z,16.50
2018-04-17T21:23:39.451Z,16.50
2018-04-17T21:26:05.745Z,16.50
2018-04-17T21:28:33.449Z,16.40
2018-04-17T21:30:59.664Z,16.40
2018-04-17T21:33:26.625Z,16.30
2018-04-17T21:35:52.824Z,16.30
2018-04-17T21:38:19.020Z,16.20
2018-04-17T21:40:45.223Z,16.20
2018-04-17T21:43:11.455Z,16.20
2018-04-17T21:45:37.719Z,16.10
2018-04-17T21:48:03.967Z,16.10
2018-04-17T21:50:30.148Z,16.10
2018-04-17T21:52:56.343Z,16.00
2018-04-17T21:55:22.547Z,16.00
2018-04-17T21:57:49.501Z,15.90
2018-04-17T22:00:16.829Z,15.80
2018-04-17T22:02:43.818Z,15.80
2018-04-17T22:05:10.127Z,15.70
2018-04-17T22:07:36.416Z,15.70
2018-04-17T22:10:02.706Z,15.70
2018-04-17T22:12:28.900Z,15.70
2018-04-17T22:14:55.121Z,15.60
2018-04-17T22:17:21.332Z,15.60
2018-04-17T22:19:47.565Z,15.50
2018-04-17T22:22:13.796Z,15.50
2018-04-17T22:24:40.108Z,15.50
2018-04-17T22:27:07.573Z,15.40
2018-04-17T22:29:33.776Z,15.40
2018-04-17T22:31:59.977Z,15.40
2018-04-17T22:34:26.211Z,15.30
2018-04-17T22:36:52.529Z,15.30
2018-04-17T22:39:18.873Z,15.20
2018-04-17T22:41:45.856Z,15.20
2018-04-17T22:44:12.095Z,15.20
2018-04-17T22:46:38.364Z,15.20
2018-04-17T22:49:04.605Z,15.10
2018-04-17T22:51:30.837Z,15.10
2018-04-17T22:53:57.068Z,15.00
2018-04-17T22:56:23.285Z,15.00
2018-04-17T22:58:49.545Z,14.90
2018-04-17T23:01:15.768Z,14.90
2018-04-17T23:03:42.019Z,14.80
2018-04-17T23:06:08.213Z,14.80
2018-04-17T23:08:34.446Z,14.80
2018-04-17T23:11:00.669Z,14.80
2018-04-17T23:13:26.895Z,14.70
2018-04-17T23:15:53.113Z,14.70
2018-04-17T23:18:19.331Z,14.60
2018-04-17T23:20:45.578Z,14.50
2018-04-17T23:23:11.806Z,14.50
2018-04-17T23:25:38.021Z,14.50
2018-04-17T23:28:04.228Z,14.50
2018-04-17T23:30:31.156Z,14.40
2018-04-17T23:33:04.192Z,14.40
2018-04-17T23:35:30.429Z,14.40
2018-04-17T23:37:56.651Z,14.40
2018-04-17T23:40:22.912Z,14.30
2018-04-17T23:42:49.112Z,14.30
2018-04-17T23:45:15.353Z,14.20
2018-04-17T23:47:41.563Z,14.20
2018-04-17T23:50:07.744Z,14.20
2018-04-17T23:52:34.712Z,14.10
2018-04-17T23:55:00.976Z,14.10
2018-04-17T23:57:27.208Z,14.10
2018-04-17T23:59:53.432Z,14.10
